Time;durP1;ratioP1;P1;durP2;ratioP2;P2;SDS_P1;SDS_P2;PMS_P1;PMS_P2;Temp;Humidity;BMP_temperature;BMP_pressure;BME280_temperature;BME280_humidity;BME280_pressure;Samples;Min_cycle;Max_cycle;Signal;HPM_P1;HPM_P2
2022/11/06 00:00:18;;;;;;;3.03;1.20;;;8.40;99.90;;;;;;5001136;28;20168;-92
2022/11/06 00:02:45;;;;;;;4.93;1.40;;;8.40;99.90;;;;;;5001558;28;20617;-85
2022/11/06 00:07:55;;;;;;;2.20;1.20;;;8.40;99.90;;;;;;4999472;28;20402;-90
2022/11/06 00:10:21;;;;;;;2.67;1.43;;;8.50;99.90;;;;;;4984827;28;20495;-89
2022/11/06 00:12:47;;;;;;;2.80;1.20;;;8.60;99.90;;;;;;5001734;28;20191;-95
2022/11/06 00:15:13;;;;;;;2.47;2.03;;;8.50;99.90;;;;;;5003504;28;20440;-88
2022/11/06 00:17:38;;;;;;;3.70;0.83;;;8.50;99.90;;;;;;5004397;28;20178;-90
2022/11/06 00:20:05;;;;;;;5.77;1.63;;;8.50;99.90;;;;;;4987193;28;20188;-94
2022/11/06 00:22:35;;;;;;;6.80;1.40;;;8.50;99.90;;;;;;5001166;28;20248;-91
2022/11/06 00:25:02;;;;;;;3.97;1.93;;;8.50;99.90;;;;;;5003266;28;20473;-88
2022/11/06 00:27:27;;;;;;;5.70;1.10;;;8.50;99.90;;;;;;5002347;28;20412;-83
2022/11/06 00:29:53;;;;;;;3.53;1.30;;;8.50;99.90;;;;;;5002469;28;20499;-92
2022/11/06 00:32:19;;;;;;;2.93;0.97;;;8.50;99.90;;;;;;5003208;28;20206;-92
2022/11/06 00:34:45;;;;;;;2.10;0.93;;;8.60;99.90;;;;;;5001479;28;20220;-92
2022/11/06 00:37:11;;;;;;;3.77;1.13;;;8.50;99.90;;;;;;5001571;28;20187;-89
2022/11/06 00:39:36;;;;;;;2.23;1.20;;;8.60;99.90;;;;;;5003562;28;20416;-89
2022/11/06 00:42:02;;;;;;;3.43;1.00;;;8.60;99.90;;;;;;5004926;28;20176;-95
2022/11/06 00:44:27;;;;;;;3.63;2.00;;;8.60;99.90;;;;;;5004861;28;20214;-90
2022/11/06 00:46:52;;;;;;;6.67;1.70;;;8.60;99.90;;;;;;5004170;28;20180;-92
2022/11/06 00:49:18;;;;;;;3.33;1.20;;;8.70;99.90;;;;;;5002921;28;20179;-90
2022/11/06 00:51:44;;;;;;;3.30;1.37;;;8.60;99.90;;;;;;5004597;28;20237;-92
2022/11/06 00:54:10;;;;;;;3.20;0.93;;;8.60;99.90;;;;;;5004333;28;20279;-87
2022/11/06 00:56:36;;;;;;;1.87;1.03;;;8.50;99.90;;;;;;5001136;28;20256;-88
2022/11/06 00:59:05;;;;;;;3.60;1.13;;;8.60;99.90;;;;;;4995247;28;20466;-88
2022/11/06 01:01:33;;;;;;;2.90;1.37;;;8.50;99.90;;;;;;4981448;28;20273;-87
2022/11/06 01:04:02;;;;;;;3.00;1.17;;;8.50;99.90;;;;;;4976272;28;20476;-90
2022/11/06 01:06:31;;;;;;;4.57;1.27;;;8.60;99.90;;;;;;4975219;28;20925;-90
2022/11/06 01:08:57;;;;;;;3.03;1.60;;;8.50;99.90;;;;;;4974573;28;20424;-90
2022/11/06 01:11:26;;;;;;;2.50;1.07;;;8.50;99.90;;;;;;4974728;28;20914;-89
2022/11/06 01:13:55;;;;;;;2.07;1.20;;;8.40;99.90;;;;;;4974946;28;20428;-93
2022/11/06 01:16:22;;;;;;;4.03;1.20;;;8.40;99.90;;;;;;4975113;28;20479;-90
2022/11/06 01:18:48;;;;;;;3.80;1.30;;;8.40;99.90;;;;;;4974710;28;20420;-89
2022/11/06 01:21:22;;;;;;;3.90;1.00;;;8.50;99.90;;;;;;4975815;28;20422;-92
2022/11/06 01:23:53;;;;;;;1.70;0.90;;;8.40;99.90;;;;;;4957978;28;20960;-89
2022/11/06 01:26:18;;;;;;;2.80;1.13;;;8.40;99.90;;;;;;4974702;28;20985;-86
2022/11/06 01:28:44;;;;;;;5.40;1.33;;;8.40;99.90;;;;;;4956767;28;20515;-88
2022/11/06 01:31:12;;;;;;;1.97;1.33;;;8.40;99.90;;;;;;4973970;28;20540;-93
2022/11/06 01:33:38;;;;;;;2.53;1.07;;;8.40;99.90;;;;;;4973444;28;20628;-87
2022/11/06 01:36:07;;;;;;;4.00;1.73;;;8.40;99.90;;;;;;4975840;28;20419;-88
2022/11/06 01:38:32;;;;;;;6.70;1.53;;;8.40;99.90;;;;;;4977817;28;20511;-89
2022/11/06 01:41:00;;;;;;;3.30;1.53;;;8.40;99.90;;;;;;4977978;28;20625;-87
2022/11/06 01:43:48;;;;;;;1.87;0.80;;;8.40;99.90;;;;;;4977804;28;20291;-91
2022/11/06 01:46:15;;;;;;;4.70;0.80;;;8.40;99.90;;;;;;4977593;28;20425;-87
2022/11/06 01:48:46;;;;;;;5.20;1.27;;;8.40;99.90;;;;;;4977339;28;20417;-89
2022/11/06 01:51:13;;;;;;;3.20;1.70;;;8.50;99.90;;;;;;4977692;28;20433;-91
2022/11/06 01:53:39;;;;;;;3.00;1.57;;;8.50;99.90;;;;;;4978148;28;20850;-84
2022/11/06 01:56:08;;;;;;;2.27;1.23;;;8.60;99.90;;;;;;4977930;28;20424;-91
2022/11/06 01:58:37;;;;;;;2.93;1.10;;;8.60;99.90;;;;;;4978542;28;20420;-90
2022/11/06 02:01:04;;;;;;;5.23;1.20;;;8.60;99.90;;;;;;4978796;28;20488;-82
2022/11/06 02:03:29;;;;;;;5.50;1.23;;;8.70;99.90;;;;;;4977767;28;20469;-90
2022/11/06 02:05:56;;;;;;;4.73;1.70;;;8.80;99.90;;;;;;4978734;28;20522;-86
2022/11/06 02:08:23;;;;;;;5.57;2.10;;;8.80;99.90;;;;;;4978635;28;20176;-92
2022/11/06 02:10:52;;;;;;;2.40;1.30;;;8.80;99.90;;;;;;4960336;28;20929;-85
2022/11/06 02:13:33;;;;;;;3.20;1.10;;;8.90;99.90;;;;;;4978174;28;20423;-90
2022/11/06 02:16:16;;;;;;;2.27;1.30;;;8.90;99.90;;;;;;4978652;28;20432;-93
2022/11/06 02:19:05;;;;;;;3.33;1.57;;;8.90;99.90;;;;;;4977388;28;20436;-94
2022/11/06 02:22:01;;;;;;;5.90;1.10;;;8.90;99.90;;;;;;4977350;28;20414;-91
2022/11/06 02:24:42;;;;;;;2.40;1.40;;;8.90;99.90;;;;;;4977871;28;20513;-87
2022/11/06 02:27:20;;;;;;;2.70;1.27;;;9.00;99.90;;;;;;4979148;28;20749;-92
2022/11/06 02:30:06;;;;;;;4.50;1.20;;;9.00;99.90;;;;;;4980452;28;20416;-88
2022/11/06 02:32:35;;;;;;;3.73;1.40;;;9.00;99.90;;;;;;4964170;28;20423;-89
2022/11/06 02:35:06;;;;;;;2.90;0.83;;;9.00;99.90;;;;;;4979297;28;20516;-88
2022/11/06 02:37:36;;;;;;;3.70;1.03;;;9.00;99.90;;;;;;4979829;28;20404;-84
2022/11/06 02:40:06;;;;;;;2.57;1.17;;;9.00;99.90;;;;;;4977388;28;20428;-92
2022/11/06 02:42:37;;;;;;;3.03;1.40;;;9.10;99.90;;;;;;4977233;28;20473;-87
2022/11/06 02:45:06;;;;;;;3.60;1.27;;;9.10;99.90;;;;;;4977652;28;20500;-86
2022/11/06 02:47:32;;;;;;;2.23;1.13;;;9.10;99.90;;;;;;4979522;28;20782;-84
2022/11/06 02:50:10;;;;;;;1.77;0.87;;;9.10;99.90;;;;;;4977070;28;20428;-88
2022/11/06 02:52:53;;;;;;;1.80;0.80;;;9.10;99.90;;;;;;4976576;28;20439;-86
2022/11/06 02:55:29;;;;;;;2.07;1.03;;;9.10;99.90;;;;;;4977335;28;20475;-90
2022/11/06 02:58:00;;;;;;;2.50;0.70;;;9.10;99.90;;;;;;4977025;28;20449;-84
2022/11/06 03:00:26;;;;;;;8.10;1.17;;;9.10;99.90;;;;;;4982017;28;20498;-83
2022/11/06 03:02:57;;;;;;;1.60;0.90;;;9.00;99.90;;;;;;4980841;28;20410;-83
2022/11/06 03:05:26;;;;;;;5.57;1.10;;;9.10;99.90;;;;;;4980575;28;20473;-84
2022/11/06 03:07:58;;;;;;;4.97;1.17;;;9.10;99.90;;;;;;4976640;28;20805;-82
2022/11/06 03:10:28;;;;;;;4.53;1.70;;;9.10;99.90;;;;;;4979545;28;20452;-87
2022/11/06 03:12:59;;;;;;;2.80;1.10;;;9.10;99.90;;;;;;4976957;28;20468;-87
2022/11/06 03:15:38;;;;;;;3.80;0.90;;;9.10;99.90;;;;;;4976709;28;20430;-88
2022/11/06 03:18:08;;;;;;;2.07;0.67;;;9.10;99.90;;;;;;4976341;28;20507;-88
2022/11/06 03:20:54;;;;;;;2.27;0.60;;;9.00;99.90;;;;;;4977046;28;20464;-90
2022/11/06 03:23:27;;;;;;;2.00;1.00;;;9.00;99.90;;;;;;4976273;28;20411;-90
2022/11/06 03:26:09;;;;;;;6.10;1.60;;;9.10;99.90;;;;;;4976270;28;20465;-91
2022/11/06 03:28:45;;;;;;;1.80;0.70;;;9.10;99.90;;;;;;4977203;28;20412;-87
2022/11/06 03:31:16;;;;;;;2.27;1.20;;;9.00;99.90;;;;;;4976306;28;20395;-87
2022/11/06 03:33:57;;;;;;;3.80;0.80;;;9.00;99.90;;;;;;4956569;28;20468;-86
2022/11/06 03:36:28;;;;;;;3.90;1.00;;;9.00;99.90;;;;;;4956586;29;20469;-92
2022/11/06 03:38:59;;;;;;;4.17;1.40;;;8.90;99.90;;;;;;4957567;28;20499;-91
2022/11/06 03:41:46;;;;;;;2.47;0.40;;;8.90;99.90;;;;;;4957241;28;20929;-92
2022/11/06 03:44:16;;;;;;;1.90;0.83;;;9.00;99.90;;;;;;4956724;28;20476;-89
2022/11/06 03:46:48;;;;;;;1.80;0.73;;;8.90;99.90;;;;;;4956269;29;20425;-93
2022/11/06 03:49:21;;;;;;;4.50;0.77;;;9.00;99.90;;;;;;4956921;28;20903;-87
2022/11/06 03:51:56;;;;;;;3.00;1.20;;;9.00;99.90;;;;;;4956616;29;20482;-89
2022/11/06 03:54:43;;;;;;;3.67;1.40;;;9.00;99.90;;;;;;4957252;28;20413;-93
2022/11/06 03:57:12;;;;;;;2.97;1.40;;;9.00;99.90;;;;;;4958296;28;20436;-91
2022/11/06 03:59:46;;;;;;;2.50;0.80;;;9.00;99.90;;;;;;4959194;28;20453;-87
2022/11/06 04:02:14;;;;;;;1.93;0.80;;;9.10;99.90;;;;;;4957401;28;20437;-88
2022/11/06 04:04:51;;;;;;;2.53;0.83;;;9.10;99.90;;;;;;4959689;28;20532;-92
2022/11/06 04:07:21;;;;;;;1.83;0.40;;;9.10;99.90;;;;;;4961651;28;20441;-89
2022/11/06 04:15:23;;;;;;;2.50;0.80;;;9.10;99.90;;;;;;4955994;29;20454;-87
2022/11/06 04:17:49;;;;;;;1.77;0.90;;;9.10;99.90;;;;;;4955500;29;20506;-85
2022/11/06 04:23:29;;;;;;;5.00;1.20;;;9.10;99.90;;;;;;4955246;29;20184;-87
2022/11/06 04:29:01;;;;;;;2.43;1.00;;;9.10;99.90;;;;;;4955126;29;20991;-87
2022/11/06 04:31:45;;;;;;;3.20;0.90;;;9.10;99.90;;;;;;4955015;29;20425;-88
2022/11/06 04:34:43;;;;;;;1.53;0.60;;;9.10;99.90;;;;;;4953956;29;20859;-86
2022/11/06 04:37:19;;;;;;;2.80;0.87;;;9.00;99.90;;;;;;4955048;29;20517;-86
2022/11/06 04:39:59;;;;;;;4.90;0.50;;;9.00;99.90;;;;;;4955018;29;20511;-86
2022/11/06 04:43:01;;;;;;;2.47;0.87;;;8.90;99.90;;;;;;4955274;29;20412;-86
2022/11/06 04:45:35;;;;;;;1.60;0.43;;;8.90;99.90;;;;;;4954936;29;20514;-87
2022/11/06 04:48:02;;;;;;;2.83;1.10;;;8.90;99.90;;;;;;4954600;29;20500;-86
2022/11/06 04:50:31;;;;;;;1.93;0.87;;;8.90;99.90;;;;;;4955020;29;20423;-85
2022/11/06 04:52:58;;;;;;;2.20;0.73;;;8.90;99.90;;;;;;4955020;29;20412;-86
2022/11/06 04:55:24;;;;;;;7.33;1.03;;;8.90;99.90;;;;;;4954924;29;20784;-85
2022/11/06 04:57:50;;;;;;;1.80;1.07;;;8.80;99.90;;;;;;4953537;28;20432;-85
2022/11/06 05:00:16;;;;;;;2.77;0.87;;;8.90;99.90;;;;;;4954935;29;20477;-87
2022/11/06 05:02:42;;;;;;;1.97;1.00;;;8.90;99.90;;;;;;4954554;29;20183;-88
2022/11/06 05:05:07;;;;;;;1.20;0.63;;;8.90;99.90;;;;;;4954731;29;20478;-85
2022/11/06 05:07:33;;;;;;;3.70;1.07;;;8.90;99.90;;;;;;4955154;29;20177;-83
2022/11/06 05:09:58;;;;;;;4.70;0.80;;;8.90;99.90;;;;;;4955373;28;20231;-87
2022/11/06 05:12:24;;;;;;;1.43;1.10;;;8.90;99.90;;;;;;4959110;29;20879;-91
2022/11/06 05:14:49;;;;;;;2.33;0.83;;;8.90;99.90;;;;;;4958086;29;20184;-91
2022/11/06 05:17:15;;;;;;;2.20;0.60;;;8.90;99.90;;;;;;4957333;28;20175;-86
2022/11/06 05:19:40;;;;;;;7.93;1.30;;;9.00;99.90;;;;;;4958700;29;20172;-86
2022/11/06 05:24:50;;;;;;;4.10;0.83;;;8.90;99.90;;;;;;4958723;29;20215;-88
2022/11/06 05:27:15;;;;;;;5.67;1.70;;;9.00;99.90;;;;;;4957572;29;20528;-86
2022/11/06 05:29:41;;;;;;;5.40;1.10;;;9.00;99.90;;;;;;4958569;29;20180;-84
2022/11/06 05:32:06;;;;;;;2.83;1.03;;;9.00;99.90;;;;;;4958175;29;20238;-90
2022/11/06 05:34:32;;;;;;;2.73;0.67;;;9.00;99.90;;;;;;4975176;28;20671;-85
2022/11/06 05:36:57;;;;;;;2.93;0.73;;;9.00;99.90;;;;;;4977872;28;20178;-88
2022/11/06 05:39:23;;;;;;;1.77;1.10;;;9.10;99.90;;;;;;4977811;28;20214;-86
2022/11/06 05:41:48;;;;;;;1.63;0.80;;;9.10;99.90;;;;;;4960283;28;20209;-83
2022/11/06 05:44:14;;;;;;;3.27;1.47;;;9.10;99.90;;;;;;4977368;28;20685;-86
2022/11/06 05:46:39;;;;;;;3.33;0.87;;;9.10;99.90;;;;;;4977205;28;20259;-89
2022/11/06 05:49:05;;;;;;;4.33;1.00;;;9.10;99.90;;;;;;4977378;28;20238;-90
2022/11/06 05:51:30;;;;;;;2.23;0.80;;;9.10;99.90;;;;;;4977598;28;20173;-85
2022/11/06 05:53:56;;;;;;;2.90;0.97;;;9.10;99.90;;;;;;4977244;28;20171;-86
2022/11/06 05:56:21;;;;;;;1.40;0.50;;;9.10;99.90;;;;;;4977673;28;20176;-85
2022/11/06 05:58:47;;;;;;;2.20;0.97;;;9.20;99.90;;;;;;4977825;28;20240;-87
2022/11/06 06:01:12;;;;;;;1.90;0.80;;;9.20;99.90;;;;;;4978507;28;20184;-88
2022/11/06 06:03:38;;;;;;;8.17;1.13;;;9.20;99.90;;;;;;4978534;28;20216;-85
2022/11/06 06:06:04;;;;;;;5.37;0.83;;;9.20;99.90;;;;;;4978692;28;20179;-85
2022/11/06 06:08:29;;;;;;;1.57;0.77;;;9.30;99.90;;;;;;4960704;28;20519;-85
2022/11/06 06:10:55;;;;;;;3.00;1.17;;;9.30;99.90;;;;;;4977688;28;20172;-87
2022/11/06 06:13:20;;;;;;;1.60;0.80;;;9.30;99.90;;;;;;4977314;28;20217;-84
2022/11/06 06:15:46;;;;;;;2.23;1.07;;;9.30;99.90;;;;;;4976862;28;20190;-85
2022/11/06 06:18:11;;;;;;;2.83;0.70;;;9.30;99.90;;;;;;4977287;28;20168;-85
2022/11/06 06:20:37;;;;;;;1.57;0.67;;;9.30;99.90;;;;;;4977791;28;20169;-86
2022/11/06 06:23:03;;;;;;;2.63;0.50;;;9.30;99.90;;;;;;4976609;28;20178;-90
2022/11/06 06:25:29;;;;;;;3.37;0.50;;;9.40;99.90;;;;;;4977010;28;21143;-84
2022/11/06 06:27:56;;;;;;;3.47;0.80;;;9.40;99.90;;;;;;4977062;28;20205;-86
2022/11/06 06:30:22;;;;;;;2.40;0.80;;;9.40;99.90;;;;;;4976705;28;20479;-85
2022/11/06 06:32:48;;;;;;;2.67;0.97;;;9.40;99.90;;;;;;4976290;28;20441;-86
2022/11/06 06:35:14;;;;;;;3.83;0.87;;;9.50;99.10;;;;;;4976818;28;20531;-86
2022/11/06 06:37:39;;;;;;;1.03;0.30;;;9.50;99.90;;;;;;4976553;28;20424;-86
2022/11/06 06:40:05;;;;;;;1.73;0.77;;;9.50;99.90;;;;;;4959423;28;20171;-85
2022/11/06 06:42:31;;;;;;;3.80;0.83;;;9.50;99.90;;;;;;4961424;28;20202;-87
2022/11/06 06:44:56;;;;;;;2.00;0.70;;;9.50;99.90;;;;;;4960405;28;20569;-92
2022/11/06 06:47:22;;;;;;;1.77;0.60;;;9.50;99.90;;;;;;4979407;28;20161;-93
2022/11/06 06:49:48;;;;;;;1.47;0.43;;;9.50;99.00;;;;;;4947059;28;20296;-93
2022/11/06 06:52:13;;;;;;;3.47;0.50;;;9.50;99.90;;;;;;4978495;28;20174;-93
2022/11/06 06:54:39;;;;;;;6.37;0.90;;;9.50;99.90;;;;;;4960697;28;20212;-93
2022/11/06 06:57:07;;;;;;;1.77;0.90;;;9.50;99.90;;;;;;4977796;28;20173;-92
2022/11/06 06:59:33;;;;;;;2.50;0.50;;;9.60;92.40;;;;;;4977738;28;20596;-94
2022/11/06 07:01:59;;;;;;;1.23;0.60;;;9.60;99.90;;;;;;4977523;28;20784;-92
2022/11/06 07:04:24;;;;;;;2.07;0.70;;;9.60;99.90;;;;;;4978072;28;20464;-93
2022/11/06 07:06:52;;;;;;;3.47;0.60;;;9.60;99.90;;;;;;4976181;28;20177;-89
2022/11/06 07:09:18;;;;;;;2.83;1.10;;;9.50;99.90;;;;;;4977434;28;20597;-91
2022/11/06 07:11:43;;;;;;;2.00;0.93;;;9.60;99.90;;;;;;4977675;28;20409;-91
2022/11/06 07:14:09;;;;;;;2.47;0.67;;;9.60;99.50;;;;;;4978456;28;20171;-93
2022/11/06 07:16:35;;;;;;;2.63;0.37;;;9.60;99.90;;;;;;4976418;28;20184;-86
2022/11/06 07:19:00;;;;;;;2.07;1.40;;;9.60;97.10;;;;;;4975773;28;20977;-86
2022/11/06 07:21:26;;;;;;;3.03;1.07;;;9.60;99.90;;;;;;4976535;28;20190;-87
2022/11/06 07:23:51;;;;;;;1.80;0.40;;;9.60;73.80;;;;;;4976426;28;20278;-92
2022/11/06 07:26:17;;;;;;;1.97;0.70;;;9.70;54.70;;;;;;4976520;28;20619;-91
2022/11/06 07:28:42;;;;;;;1.47;0.40;;;9.70;76.00;;;;;;4976447;28;20226;-89
2022/11/06 07:31:11;;;;;;;1.00;0.30;;;9.70;58.90;;;;;;4976174;28;20191;-88
2022/11/06 07:33:37;;;;;;;1.40;0.30;;;9.70;67.10;;;;;;4975628;28;20221;-89
2022/11/06 07:36:11;;;;;;;2.00;0.70;;;9.80;20.30;;;;;;4959183;28;20420;-86
2022/11/06 07:38:39;;;;;;;3.17;0.87;;;9.80;43.90;;;;;;4976551;28;20414;-85
2022/11/06 07:41:07;;;;;;;2.10;0.63;;;9.80;43.70;;;;;;4958749;28;20926;-85
2022/11/06 07:43:33;;;;;;;2.93;1.30;;;9.80;37.40;;;;;;4958717;28;20435;-84
2022/11/06 07:46:00;;;;;;;4.30;0.87;;;9.80;44.50;;;;;;4975979;28;20423;-87
2022/11/06 07:48:27;;;;;;;2.03;0.87;;;9.80;25.70;;;;;;4976043;28;20451;-87
2022/11/06 07:50:53;;;;;;;2.13;0.93;;;9.80;34.40;;;;;;4975599;28;20419;-85
2022/11/06 07:53:18;;;;;;;2.43;0.60;;;9.80;18.20;;;;;;4975827;28;20431;-86
2022/11/06 07:55:52;;;;;;;0.70;0.33;;;9.90;27.80;;;;;;4959962;28;20652;-92
2022/11/06 07:58:18;;;;;;;6.63;0.97;;;9.90;7.90;;;;;;4984862;28;20191;-85
2022/11/06 08:00:47;;;;;;;1.53;0.53;;;10.00;1.00;;;;;;4987564;28;20840;-86
2022/11/06 08:03:13;;;;;;;3.07;1.43;;;10.00;1.00;;;;;;4987312;28;20964;-83
2022/11/06 08:05:38;;;;;;;2.00;0.60;;;10.00;1.00;;;;;;4967182;28;20469;-88
2022/11/06 08:08:04;;;;;;;1.80;0.40;;;10.00;1.00;;;;;;4977917;28;20216;-92
2022/11/06 08:10:29;;;;;;;2.70;1.07;;;9.90;21.50;;;;;;4976315;28;20791;-85
2022/11/06 08:12:55;;;;;;;2.87;0.43;;;10.00;4.90;;;;;;4976305;28;20235;-89
2022/11/06 08:15:20;;;;;;;3.53;0.60;;;10.00;1.00;;;;;;4958052;28;20173;-89
2022/11/06 08:17:46;;;;;;;2.10;0.60;;;10.10;1.00;;;;;;4975518;28;20174;-89
2022/11/06 08:20:11;;;;;;;1.43;0.30;;;10.00;12.10;;;;;;4976131;28;20176;-93
2022/11/06 08:22:37;;;;;;;3.77;0.80;;;10.00;1.00;;;;;;4958791;28;20176;-90
2022/11/06 08:25:02;;;;;;;2.20;0.67;;;10.00;5.40;;;;;;4975441;28;20313;-89
2022/11/06 08:27:28;;;;;;;2.00;0.67;;;10.10;1.00;;;;;;4958284;28;20182;-88
2022/11/06 08:29:53;;;;;;;1.80;0.50;;;10.10;1.00;;;;;;4975225;28;20206;-89
2022/11/06 08:32:19;;;;;;;1.90;0.60;;;10.10;1.00;;;;;;4957660;28;20185;-85
2022/11/06 08:34:44;;;;;;;1.20;0.40;;;10.20;30.10;;;;;;4975013;28;20232;-84
2022/11/06 08:37:10;;;;;;;3.37;0.60;;;10.30;1.00;;;;;;4975038;28;20182;-86
2022/11/06 08:39:36;;;;;;;2.73;0.53;;;10.30;1.00;;;;;;4975506;28;20256;-90
2022/11/06 08:42:03;;;;;;;1.63;0.63;;;10.40;1.00;;;;;;4975628;28;20175;-89
2022/11/06 08:44:28;;;;;;;2.50;0.40;;;10.40;1.00;;;;;;4975383;28;20223;-92
2022/11/06 08:46:54;;;;;;;4.07;0.43;;;10.40;1.00;;;;;;4975116;28;20479;-85
2022/11/06 08:49:19;;;;;;;2.23;0.60;;;10.60;1.00;;;;;;4975590;28;20655;-90
2022/11/06 08:51:45;;;;;;;1.97;0.73;;;10.60;1.00;;;;;;4958542;28;20193;-89
2022/11/06 08:54:12;;;;;;;1.40;0.40;;;10.50;1.00;;;;;;4975315;28;20164;-92
2022/11/06 08:56:37;;;;;;;3.60;0.53;;;10.50;1.00;;;;;;4975263;28;20182;-90
2022/11/06 08:59:03;;;;;;;2.23;0.53;;;10.60;1.00;;;;;;4975333;28;20796;-86
2022/11/06 09:01:29;;;;;;;2.47;0.47;;;10.50;1.00;;;;;;4975711;28;20337;-85
2022/11/06 09:03:54;;;;;;;2.37;0.50;;;10.60;1.00;;;;;;4975016;28;20198;-92
2022/11/06 09:06:20;;;;;;;3.30;0.60;;;10.60;1.00;;;;;;4975483;28;20455;-91
2022/11/06 09:08:45;;;;;;;5.57;0.83;;;10.70;1.00;;;;;;4974865;28;20180;-86
2022/11/06 09:11:11;;;;;;;1.93;0.40;;;10.70;1.00;;;;;;4974753;28;20198;-86
2022/11/06 09:13:37;;;;;;;1.80;0.60;;;10.70;1.00;;;;;;4974849;28;20196;-92
2022/11/06 09:16:03;;;;;;;2.07;0.60;;;10.70;1.00;;;;;;4974811;28;20466;-92
2022/11/06 09:18:28;;;;;;;0.77;0.30;;;10.60;1.00;;;;;;4974618;28;20446;-90
2022/11/06 09:20:55;;;;;;;2.27;0.50;;;10.70;1.00;;;;;;4974697;28;20262;-87
2022/11/06 09:23:22;;;;;;;2.00;0.50;;;10.60;1.00;;;;;;4974606;28;20165;-84
2022/11/06 09:25:47;;;;;;;1.00;0.20;;;10.60;1.00;;;;;;4957492;28;20424;-93
2022/11/06 09:28:13;;;;;;;2.03;0.40;;;10.60;1.00;;;;;;4974657;28;21057;-91
2022/11/06 09:30:38;;;;;;;3.37;0.57;;;10.60;1.00;;;;;;4957241;28;20173;-90
2022/11/06 09:33:04;;;;;;;2.73;0.67;;;10.70;1.00;;;;;;4974706;28;20246;-85
2022/11/06 09:35:32;;;;;;;4.40;0.90;;;10.70;1.00;;;;;;4974697;28;20203;-90
2022/11/06 09:38:05;;;;;;;6.30;0.93;;;10.70;1.00;;;;;;4975086;28;20261;-86
2022/11/06 09:40:37;;;;;;;1.50;0.30;;;10.70;1.00;;;;;;4974518;28;20791;-84
2022/11/06 09:43:28;;;;;;;3.37;0.70;;;10.70;1.00;;;;;;4974159;28;20428;-85
2022/11/06 09:45:56;;;;;;;1.50;0.50;;;10.80;1.00;;;;;;4973872;28;20427;-89
2022/11/06 09:48:27;;;;;;;2.07;0.37;;;10.90;1.00;;;;;;4973943;28;20421;-84
2022/11/06 09:51:06;;;;;;;0.60;0.30;;;11.10;1.00;;;;;;4974166;28;20408;-87
2022/11/06 09:53:38;;;;;;;2.90;0.37;;;11.10;1.00;;;;;;4974171;28;20411;-91
2022/11/06 09:56:05;;;;;;;5.33;0.70;;;11.20;1.00;;;;;;4974311;28;20503;-86
2022/11/06 09:58:36;;;;;;;2.13;0.50;;;11.20;1.00;;;;;;4977841;28;20410;-86
2022/11/06 10:01:13;;;;;;;4.67;0.67;;;11.40;1.00;;;;;;4977213;28;20418;-86
2022/11/06 10:03:50;;;;;;;5.13;1.93;;;11.40;1.00;;;;;;4960362;28;20817;-89
2022/11/06 10:06:18;;;;;;;0.83;0.20;;;11.30;1.00;;;;;;4960604;28;20468;-85
2022/11/06 10:08:44;;;;;;;3.63;0.23;;;11.40;1.00;;;;;;4977405;28;21024;-91
2022/11/06 10:11:16;;;;;;;1.80;0.60;;;11.40;1.00;;;;;;4977787;28;20439;-91
2022/11/06 10:14:03;;;;;;;1.20;0.33;;;11.40;1.00;;;;;;4977512;28;20165;-89
2022/11/06 10:16:54;;;;;;;2.37;0.20;;;11.50;1.00;;;;;;4959802;28;20444;-92
2022/11/06 10:19:36;;;;;;;1.57;0.40;;;11.90;99.90;;;;;;4977385;28;20438;-85
2022/11/06 10:22:22;;;;;;;1.60;0.30;;;11.90;99.90;;;;;;4977138;28;20532;-89
2022/11/06 10:25:11;;;;;;;10.23;1.20;;;11.90;99.90;;;;;;4977607;28;20475;-84
2022/11/06 10:27:40;;;;;;;1.23;0.30;;;11.80;99.90;;;;;;4977314;28;20438;-89
2022/11/06 10:30:17;;;;;;;1.53;0.60;;;11.80;1.00;;;;;;4976940;28;20467;-87
2022/11/06 10:32:48;;;;;;;1.63;0.40;;;11.80;1.00;;;;;;4959532;28;20982;-91
2022/11/06 10:35:41;;;;;;;1.17;0.40;;;11.90;1.00;;;;;;4958843;28;20896;-84
2022/11/06 10:38:13;;;;;;;1.67;0.63;;;12.20;99.90;;;;;;4977018;28;20967;-88
2022/11/06 10:40:41;;;;;;;1.27;0.30;;;12.30;1.00;;;;;;4977399;28;20500;-90
2022/11/06 10:43:25;;;;;;;2.63;0.80;;;12.40;59.80;;;;;;4977149;28;20431;-88
2022/11/06 10:45:59;;;;;;;3.60;0.60;;;12.30;1.00;;;;;;4976392;28;20442;-85
2022/11/06 10:48:37;;;;;;;2.50;0.40;;;12.40;1.00;;;;;;4959138;28;20468;-85
2022/11/06 10:51:16;;;;;;;2.70;0.40;;;12.50;1.00;;;;;;4976503;28;20413;-88
2022/11/06 10:53:59;;;;;;;1.17;0.20;;;12.40;1.00;;;;;;4976646;28;20508;-86
2022/11/06 10:56:46;;;;;;;1.83;0.53;;;12.50;99.90;;;;;;4976473;28;20430;-84
2022/11/06 10:59:13;;;;;;;2.70;0.40;;;12.50;1.00;;;;;;4976407;28;20410;-86
2022/11/06 11:01:38;;;;;;;2.00;0.30;;;12.70;99.90;;;;;;4974288;28;20439;-87
2022/11/06 11:04:04;;;;;;;0.93;0.27;;;13.20;1.00;;;;;;4976098;28;20526;-90
2022/11/06 11:06:30;;;;;;;2.00;0.30;;;13.90;99.90;;;;;;4977374;28;20183;-86
2022/11/06 11:08:55;;;;;;;1.23;0.20;;;14.10;99.90;;;;;;4976428;28;20178;-85
2022/11/06 11:11:26;;;;;;;4.93;0.60;;;14.50;1.00;;;;;;4976357;28;20175;-88
2022/11/06 11:14:00;;;;;;;1.57;0.30;;;14.40;1.00;;;;;;4976130;28;20675;-87
2022/11/06 11:16:30;;;;;;;2.40;0.40;;;15.30;20.90;;;;;;4975746;28;20418;-90
2022/11/06 11:19:24;;;;;;;1.00;0.30;;;15.40;1.00;;;;;;4976230;28;20466;-85
2022/11/06 11:21:58;;;;;;;2.23;0.23;;;16.10;1.00;;;;;;4976471;28;20415;-93
2022/11/06 11:24:24;;;;;;;0.83;0.20;;;15.60;99.90;;;;;;4976421;28;20792;-86
2022/11/06 11:27:04;;;;;;;3.07;0.40;;;15.10;1.00;;;;;;4976299;28;20567;-92
2022/11/06 11:29:48;;;;;;;1.53;0.30;;;14.90;99.90;;;;;;4976357;28;20409;-86
2022/11/06 11:32:16;;;;;;;3.13;0.80;;;14.80;99.90;;;;;;4976270;28;20477;-87
2022/11/06 11:34:49;;;;;;;2.60;0.20;;;14.70;77.50;;;;;;4975973;28;20583;-88
2022/11/06 11:37:24;;;;;;;0.90;0.30;;;14.50;1.00;;;;;;4976452;28;20409;-87
2022/11/06 11:39:50;;;;;;;1.53;0.40;;;14.20;1.00;;;;;;4976038;28;20413;-88
2022/11/06 11:42:20;;;;;;;4.07;0.67;;;14.20;63.90;;;;;;4975937;28;20501;-88
2022/11/06 11:44:45;;;;;;;2.10;0.37;;;14.20;99.90;;;;;;4961610;28;20251;-89
2022/11/06 11:47:31;;;;;;;4.17;0.50;;;14.10;99.90;;;;;;4976350;28;20450;-90
2022/11/06 11:49:56;;;;;;;1.27;0.40;;;14.10;1.00;;;;;;4975435;28;20198;-90
2022/11/06 11:52:22;;;;;;;2.50;0.20;;;14.10;1.00;;;;;;4975926;28;20425;-87
2022/11/06 11:54:51;;;;;;;0.97;0.20;;;14.10;99.90;;;;;;4975583;28;20183;-85
2022/11/06 11:57:23;;;;;;;1.33;0.30;;;14.20;99.90;;;;;;4975874;28;20173;-86
2022/11/06 11:59:56;;;;;;;2.13;0.30;;;14.10;99.90;;;;;;4975629;28;20555;-87
2022/11/06 12:02:40;;;;;;;4.93;0.73;;;14.50;1.00;;;;;;4975625;28;20500;-87
2022/11/06 12:05:12;;;;;;;2.57;0.30;;;14.50;1.00;;;;;;4975980;28;20538;-84
2022/11/06 12:07:42;;;;;;;1.47;0.37;;;14.50;99.90;;;;;;4959082;28;20405;-86
2022/11/06 12:10:40;;;;;;;1.10;0.27;;;14.50;99.90;;;;;;4975882;28;20431;-85
2022/11/06 12:13:11;;;;;;;2.00;0.50;;;14.40;1.00;;;;;;4974267;28;20446;-85
2022/11/06 12:16:02;;;;;;;0.97;0.20;;;14.40;1.00;;;;;;4975650;28;20425;-87
2022/11/06 12:18:34;;;;;;;0.70;0.30;;;14.60;99.90;;;;;;4978249;28;20426;-88
2022/11/06 12:21:23;;;;;;;1.37;0.30;;;14.30;99.90;;;;;;4994287;28;20775;-91
2022/11/06 12:23:57;;;;;;;2.57;0.77;;;14.30;98.70;;;;;;4994525;28;20974;-87
2022/11/06 12:26:44;;;;;;;1.33;0.20;;;14.50;1.00;;;;;;4994973;28;20420;-90
2022/11/06 12:29:15;;;;;;;1.00;0.40;;;14.60;99.90;;;;;;4994608;28;20410;-90
2022/11/06 12:31:51;;;;;;;1.60;0.50;;;14.50;1.00;;;;;;4994708;28;20496;-87
2022/11/06 12:34:24;;;;;;;5.03;0.30;;;14.40;1.00;;;;;;4995619;28;20499;-92
2022/11/06 12:37:47;;;;;;;3.03;0.37;;;14.10;99.90;;;;;;4977587;28;20529;-87
2022/11/06 12:40:21;;;;;;;1.10;0.67;;;13.80;99.90;;;;;;4916163;29;20427;-88
2022/11/06 12:43:13;;;;;;;2.10;0.30;;;13.50;1.00;;;;;;4900030;29;20429;-91
2022/11/06 12:46:17;;;;;;;1.53;0.20;;;13.50;1.00;;;;;;4944959;29;20486;-90
2022/11/06 12:49:09;;;;;;;3.10;0.57;;;13.50;1.00;;;;;;4957469;28;20431;-90
2022/11/06 12:52:10;;;;;;;2.10;0.43;;;13.50;1.00;;;;;;4974609;28;20514;-89
2022/11/06 12:54:52;;;;;;;0.73;0.40;;;13.50;99.90;;;;;;4957517;28;20820;-89
2022/11/06 12:57:46;;;;;;;0.90;0.27;;;13.50;1.00;;;;;;4974949;28;20527;-91
2022/11/06 13:00:28;;;;;;;1.43;0.43;;;13.50;99.90;;;;;;4959468;28;20949;-93
2022/11/06 13:03:28;;;;;;;2.33;0.27;;;13.40;1.00;;;;;;4945860;28;20434;-92
2022/11/06 13:06:06;;;;;;;1.27;0.53;;;13.30;1.00;;;;;;4960358;28;20807;-90
2022/11/06 13:08:55;;;;;;;2.83;0.60;;;13.20;1.00;;;;;;4976727;28;20912;-90
2022/11/06 13:11:28;;;;;;;2.00;0.67;;;13.40;99.90;;;;;;4976926;28;20502;-92
2022/11/06 13:14:07;;;;;;;1.50;0.40;;;13.50;1.00;;;;;;4959615;28;20444;-88
2022/11/06 13:16:59;;;;;;;2.23;0.90;;;13.50;99.90;;;;;;4975462;28;20437;-90
2022/11/06 13:19:43;;;;;;;2.60;0.30;;;13.60;99.90;;;;;;4976748;28;20432;-90
2022/11/06 13:22:20;;;;;;;2.00;0.40;;;13.60;99.90;;;;;;4959867;28;20805;-87
2022/11/06 13:24:54;;;;;;;3.23;0.30;;;13.60;99.90;;;;;;4976586;28;20457;-90
2022/11/06 13:27:25;;;;;;;2.87;0.50;;;13.40;1.00;;;;;;4973052;28;20437;-90
2022/11/06 13:29:53;;;;;;;3.53;0.40;;;13.30;1.00;;;;;;4972892;28;20502;-89
2022/11/06 13:32:23;;;;;;;2.77;0.50;;;13.30;97.50;;;;;;4977332;28;20460;-91